Time;durP1;ratioP1;P1;durP2;ratioP2;P2;SDS_P1;SDS_P2;PMS_P1;PMS_P2;Temp;Humidity;BMP_temperature;BMP_pressure;BME280_temperature;BME280_humidity;BME280_pressure;Samples;Min_cycle;Max_cycle;Signal;HPM_P1;HPM_P2
2022/04/13 00:01:10;;;;;;;7.72;2.42;;;10.60;99.90;;;;;;5111890;28;20374;-64
2022/04/13 00:04:17;;;;;;;5.45;2.85;;;10.70;99.90;;;;;;5112229;28;20505;-64
2022/04/13 00:07:22;;;;;;;7.13;2.90;;;10.70;99.90;;;;;;5112124;28;20047;-64
2022/04/13 00:10:26;;;;;;;8.85;2.65;;;10.60;99.90;;;;;;5112391;28;20057;-64
2022/04/13 00:13:30;;;;;;;6.10;3.28;;;10.50;99.90;;;;;;5112238;28;20042;-64
2022/04/13 00:16:34;;;;;;;8.82;2.90;;;10.50;99.90;;;;;;5111452;28;20047;-63
2022/04/13 00:19:38;;;;;;;6.05;3.40;;;10.50;99.90;;;;;;5112381;28;20050;-63
2022/04/13 00:22:42;;;;;;;10.60;3.40;;;10.40;99.90;;;;;;5112045;28;20041;-64
2022/04/13 00:25:47;;;;;;;9.75;3.30;;;10.50;99.90;;;;;;5111565;28;20386;-64
2022/04/13 00:28:51;;;;;;;7.30;2.75;;;10.40;99.90;;;;;;5112189;28;20046;-63
2022/04/13 00:31:56;;;;;;;4.47;2.40;;;10.40;99.90;;;;;;5111860;28;20081;-63
2022/04/13 00:35:04;;;;;;;12.55;2.97;;;10.40;99.90;;;;;;5110961;28;20038;-64
2022/04/13 00:38:09;;;;;;;9.13;3.05;;;10.30;99.90;;;;;;5111255;28;20394;-64
2022/04/13 00:41:13;;;;;;;6.00;2.58;;;10.30;99.90;;;;;;5111883;28;20042;-64
2022/04/13 00:44:17;;;;;;;10.80;3.22;;;10.30;99.90;;;;;;5111700;28;20494;-64
2022/04/13 00:47:21;;;;;;;9.15;3.17;;;10.30;99.90;;;;;;5111352;28;20039;-64
2022/04/13 00:50:26;;;;;;;8.30;3.00;;;10.20;99.90;;;;;;5111402;28;20062;-63
2022/04/13 00:53:31;;;;;;;6.40;3.20;;;10.20;99.90;;;;;;5111689;28;20046;-64
2022/04/13 00:56:40;;;;;;;7.38;2.75;;;10.20;99.90;;;;;;5111096;28;20248;-64
2022/04/13 00:59:45;;;;;;;6.45;2.25;;;10.10;99.90;;;;;;5111152;28;20486;-63
2022/04/13 01:02:51;;;;;;;6.28;2.95;;;10.10;99.90;;;;;;5111687;28;20402;-63
2022/04/13 01:05:55;;;;;;;6.65;2.95;;;10.10;99.90;;;;;;5111446;28;20050;-64
2022/04/13 01:08:59;;;;;;;7.50;2.92;;;10.10;99.90;;;;;;5111388;28;21046;-63
2022/04/13 01:12:04;;;;;;;8.30;3.03;;;10.10;99.90;;;;;;5111462;28;20636;-63
2022/04/13 01:15:08;;;;;;;7.97;2.58;;;10.20;99.90;;;;;;5111519;28;20047;-64
2022/04/13 01:18:14;;;;;;;7.85;2.65;;;10.20;99.90;;;;;;5110723;28;20256;-64
2022/04/13 01:21:19;;;;;;;8.35;3.08;;;10.20;99.90;;;;;;5111367;28;20046;-64
2022/04/13 01:24:23;;;;;;;6.78;2.67;;;10.10;99.90;;;;;;5111357;28;20043;-64
2022/04/13 01:27:27;;;;;;;6.55;2.53;;;10.10;99.90;;;;;;5109991;28;20058;-64
2022/04/13 01:30:31;;;;;;;4.53;2.40;;;10.10;99.90;;;;;;5110736;28;20062;-63
2022/04/13 01:33:37;;;;;;;8.43;2.65;;;10.20;99.90;;;;;;5110856;28;20046;-63
2022/04/13 01:36:42;;;;;;;8.20;2.80;;;10.20;99.90;;;;;;5110697;28;20058;-63
2022/04/13 01:39:46;;;;;;;7.15;3.05;;;10.20;99.90;;;;;;5111095;28;20042;-63
2022/04/13 01:42:50;;;;;;;5.93;2.70;;;10.10;99.90;;;;;;5110992;28;20047;-64
2022/04/13 01:45:55;;;;;;;11.13;3.30;;;10.00;99.90;;;;;;5111002;28;20505;-64
2022/04/13 01:48:59;;;;;;;4.85;2.45;;;10.00;99.90;;;;;;5110884;28;20050;-63
2022/04/13 01:52:05;;;;;;;6.18;2.90;;;9.90;99.90;;;;;;5110245;28;20042;-64
2022/04/13 01:55:10;;;;;;;6.75;2.83;;;9.90;99.90;;;;;;5109123;28;20038;-64
2022/04/13 01:58:13;;;;;;;7.03;3.30;;;9.80;99.90;;;;;;5108902;28;20035;-64
2022/04/13 02:01:17;;;;;;;7.65;2.88;;;9.70;99.90;;;;;;5110339;28;20031;-64
2022/04/13 02:04:26;;;;;;;8.07;3.25;;;9.70;99.90;;;;;;5110690;28;20031;-64
2022/04/13 02:07:32;;;;;;;6.95;2.80;;;9.60;99.90;;;;;;5109924;28;20039;-64
2022/04/13 02:10:36;;;;;;;5.68;2.90;;;9.60;99.90;;;;;;5110070;28;20042;-64
2022/04/13 02:13:40;;;;;;;11.48;2.35;;;9.50;99.90;;;;;;5110764;28;20054;-64
2022/04/13 02:16:44;;;;;;;8.02;2.75;;;9.50;99.90;;;;;;5110031;28;20414;-64
2022/04/13 02:19:48;;;;;;;4.90;2.30;;;9.50;99.90;;;;;;5110520;28;20047;-64
2022/04/13 02:22:52;;;;;;;5.10;2.67;;;9.50;99.90;;;;;;5111886;28;20050;-64
2022/04/13 02:25:56;;;;;;;6.43;2.50;;;9.50;99.90;;;;;;5114154;28;20047;-64
2022/04/13 02:29:00;;;;;;;6.57;2.80;;;9.50;99.90;;;;;;5114553;28;20030;-63
2022/04/13 02:32:05;;;;;;;4.32;2.40;;;9.60;99.90;;;;;;5114265;28;20495;-64
2022/04/13 02:35:09;;;;;;;4.68;2.78;;;9.60;99.90;;;;;;5114411;28;20040;-64
2022/04/13 02:38:13;;;;;;;8.20;2.70;;;9.70;99.90;;;;;;5113623;28;20036;-64
2022/04/13 02:41:17;;;;;;;12.40;3.40;;;9.70;99.90;;;;;;5113149;28;20051;-63
2022/04/13 02:44:21;;;;;;;4.38;2.80;;;9.70;99.90;;;;;;5114267;28;20046;-64
2022/04/13 02:47:26;;;;;;;7.43;2.72;;;9.60;99.90;;;;;;5113531;28;20055;-64
2022/04/13 02:50:30;;;;;;;7.03;3.08;;;9.50;99.90;;;;;;5113466;28;20526;-65
2022/04/13 02:53:34;;;;;;;7.50;2.80;;;9.40;99.90;;;;;;5114047;28;20363;-64
2022/04/13 02:56:38;;;;;;;6.47;2.80;;;9.30;99.90;;;;;;5112506;28;20050;-64
2022/04/13 02:59:46;;;;;;;7.30;3.58;;;9.30;99.90;;;;;;5113823;28;20165;-65
2022/04/13 03:02:49;;;;;;;6.80;2.60;;;9.30;99.90;;;;;;5113655;28;20032;-64
2022/04/13 03:05:53;;;;;;;5.60;2.90;;;9.30;99.90;;;;;;5113806;28;20039;-64
2022/04/13 03:08:58;;;;;;;5.35;2.60;;;9.30;99.90;;;;;;5113671;28;20044;-64
2022/04/13 03:12:02;;;;;;;4.30;2.30;;;9.30;99.90;;;;;;5113422;28;20050;-64
2022/04/13 03:15:06;;;;;;;5.90;2.65;;;9.30;99.90;;;;;;5113637;28;20054;-63
2022/04/13 03:18:11;;;;;;;5.60;2.78;;;9.30;99.90;;;;;;5112606;28;20531;-64
2022/04/13 03:21:16;;;;;;;8.10;3.10;;;9.30;99.90;;;;;;5113568;28;20390;-65
2022/04/13 03:24:24;;;;;;;12.43;3.10;;;9.30;99.90;;;;;;5113098;28;20036;-64
2022/04/13 03:27:28;;;;;;;7.72;3.00;;;9.20;99.90;;;;;;5112687;28;20399;-64
2022/04/13 03:30:32;;;;;;;7.10;3.15;;;9.20;99.90;;;;;;5112143;28;20052;-64
2022/04/13 03:33:36;;;;;;;11.05;3.70;;;9.20;99.90;;;;;;5113033;28;20513;-64
2022/04/13 03:36:40;;;;;;;8.30;3.33;;;9.20;99.90;;;;;;5112860;28;20063;-63
2022/04/13 03:39:43;;;;;;;10.32;3.05;;;9.10;99.90;;;;;;5113749;28;20040;-65
2022/04/13 03:42:49;;;;;;;11.38;3.28;;;9.00;99.90;;;;;;5112983;28;20043;-64
2022/04/13 03:45:53;;;;;;;7.68;3.00;;;9.10;99.90;;;;;;5113045;28;20501;-63
2022/04/13 03:48:56;;;;;;;6.63;3.10;;;9.10;99.90;;;;;;5112919;28;20063;-64
2022/04/13 03:52:00;;;;;;;4.05;2.63;;;9.10;99.90;;;;;;5112724;28;20047;-64
2022/04/13 03:55:07;;;;;;;4.85;3.20;;;9.10;99.90;;;;;;5112847;28;20044;-63
2022/04/13 03:58:11;;;;;;;5.47;2.97;;;9.00;99.90;;;;;;5112072;28;20043;-64
2022/04/13 04:01:15;;;;;;;12.70;3.08;;;8.90;99.90;;;;;;5112706;28;20442;-64
2022/04/13 04:04:19;;;;;;;6.68;2.90;;;8.90;99.90;;;;;;5112240;28;20043;-64
2022/04/13 04:07:23;;;;;;;6.00;2.95;;;8.90;99.90;;;;;;5112102;28;20494;-64
2022/04/13 04:10:27;;;;;;;8.27;2.88;;;8.80;99.90;;;;;;5112563;28;20044;-64
2022/04/13 04:13:32;;;;;;;6.38;3.67;;;8.80;99.90;;;;;;5112307;28;20047;-64
2022/04/13 04:16:36;;;;;;;9.38;3.47;;;8.80;99.90;;;;;;5111901;28;20389;-63
2022/04/13 04:19:40;;;;;;;8.43;4.13;;;8.80;99.90;;;;;;5112082;28;20500;-64
2022/04/13 04:22:44;;;;;;;9.60;3.78;;;8.80;99.90;;;;;;5111988;28;20398;-64
2022/04/13 04:25:48;;;;;;;8.82;3.53;;;8.80;99.90;;;;;;5111632;28;20498;-64
2022/04/13 04:28:53;;;;;;;8.02;3.50;;;8.70;99.90;;;;;;5111900;28;20054;-65
2022/04/13 04:31:59;;;;;;;12.65;4.72;;;8.60;99.90;;;;;;5111521;28;20039;-64
2022/04/13 04:35:07;;;;;;;12.57;4.57;;;8.60;99.90;;;;;;5112452;28;20054;-64
2022/04/13 04:38:11;;;;;;;13.65;5.53;;;8.50;99.90;;;;;;5111461;28;20604;-64
2022/04/13 04:41:15;;;;;;;10.90;5.00;;;8.40;99.90;;;;;;5111635;28;20046;-64
2022/04/13 04:44:19;;;;;;;11.00;5.43;;;8.30;99.90;;;;;;5111805;28;20054;-64
2022/04/13 04:47:25;;;;;;;16.48;5.70;;;8.20;99.90;;;;;;5111308;28;20059;-64
2022/04/13 04:50:30;;;;;;;10.60;5.63;;;8.10;99.90;;;;;;5111471;28;20413;-64
2022/04/13 04:53:34;;;;;;;10.52;4.65;;;8.10;99.90;;;;;;5111461;28;20046;-64
2022/04/13 04:56:38;;;;;;;12.77;5.60;;;8.20;99.90;;;;;;5111044;28;20051;-64
2022/04/13 04:59:42;;;;;;;9.25;5.72;;;8.20;99.90;;;;;;5111659;28;20035;-63
2022/04/13 05:02:50;;;;;;;9.20;5.30;;;8.30;99.90;;;;;;5111902;28;20398;-64
2022/04/13 05:05:54;;;;;;;13.25;6.40;;;8.40;99.90;;;;;;5111832;28;20036;-64
2022/04/13 05:08:58;;;;;;;12.50;8.13;;;8.50;99.90;;;;;;5111096;28;20046;-64
2022/04/13 05:12:04;;;;;;;15.80;10.27;;;8.60;99.90;;;;;;5111167;28;20414;-64
2022/04/13 05:15:08;;;;;;;21.63;8.40;;;8.80;99.90;;;;;;5110901;28;20042;-64
2022/04/13 05:18:13;;;;;;;13.23;5.90;;;8.90;99.90;;;;;;5110493;28;20042;-64
2022/04/13 05:21:17;;;;;;;12.77;5.70;;;9.00;99.90;;;;;;5110883;28;20054;-64
2022/04/13 05:24:21;;;;;;;15.93;5.95;;;9.20;99.90;;;;;;5110908;28;20046;-64
2022/04/13 05:27:27;;;;;;;15.23;6.30;;;10.00;99.90;;;;;;5109900;28;20051;-64
2022/04/13 05:30:31;;;;;;;12.73;6.15;;;13.20;99.90;;;;;;5110595;28;20050;-64
2022/04/13 05:33:35;;;;;;;24.48;6.43;;;15.90;99.90;;;;;;5110572;28;20299;-65
2022/04/13 05:36:39;;;;;;;18.48;5.55;;;18.20;99.90;;;;;;5110509;28;20318;-64
2022/04/13 05:39:45;;;;;;;18.25;5.60;;;19.60;99.90;;;;;;5110740;28;20067;-63
2022/04/13 05:42:51;;;;;;;16.23;5.30;;;20.40;98.10;;;;;;5110599;28;20509;-64
2022/04/13 05:45:55;;;;;;;11.70;4.45;;;20.20;97.30;;;;;;5110974;28;20039;-64
2022/04/13 05:49:02;;;;;;;10.38;4.10;;;19.20;97.10;;;;;;5110658;28;20050;-64
2022/04/13 05:52:06;;;;;;;10.85;5.00;;;18.00;97.50;;;;;;5110318;28;20042;-64
2022/04/13 05:55:13;;;;;;;10.75;4.55;;;17.80;98.60;;;;;;5110562;28;20038;-64
2022/04/13 05:58:17;;;;;;;12.50;4.75;;;18.60;98.20;;;;;;5110464;28;20090;-65
2022/04/13 06:01:21;;;;;;;11.18;4.78;;;19.10;97.70;;;;;;5100123;28;20052;-63
2022/04/13 06:04:26;;;;;;;11.82;5.15;;;20.10;96.70;;;;;;5102650;28;20039;-64
2022/04/13 06:07:31;;;;;;;15.73;5.47;;;19.30;96.30;;;;;;5109999;28;20398;-64
2022/04/13 06:10:35;;;;;;;9.68;5.18;;;18.50;97.50;;;;;;5090268;28;20051;-64
2022/04/13 06:13:39;;;;;;;15.35;5.82;;;18.20;98.10;;;;;;5108582;28;20485;-64
2022/04/13 06:16:43;;;;;;;17.98;8.50;;;18.30;97.40;;;;;;5104334;28;20386;-64
2022/04/13 06:19:47;;;;;;;18.88;7.72;;;17.40;97.80;;;;;;5102347;28;20370;-65
2022/04/13 06:22:52;;;;;;;12.80;6.57;;;17.40;98.70;;;;;;5106501;28;20030;-65
2022/04/13 06:25:56;;;;;;;14.13;6.30;;;17.10;98.70;;;;;;5097793;28;20043;-64
2022/04/13 06:29:00;;;;;;;14.95;9.70;;;17.90;98.20;;;;;;5102610;28;20046;-64
2022/04/13 06:32:04;;;;;;;9.60;4.18;;;19.00;96.90;;;;;;5105269;28;20035;-61
2022/04/13 06:35:11;;;;;;;13.38;5.93;;;19.60;95.40;;;;;;5107395;28;20039;-64
2022/04/13 06:38:16;;;;;;;8.50;4.03;;;19.80;94.80;;;;;;5101642;28;20047;-65
2022/04/13 06:41:21;;;;;;;11.52;4.25;;;20.30;94.40;;;;;;5108168;28;20039;-65
2022/04/13 06:44:27;;;;;;;9.32;4.05;;;20.90;93.30;;;;;;5104761;28;20046;-63
2022/04/13 06:47:31;;;;;;;7.30;4.20;;;21.00;92.90;;;;;;5104073;28;20051;-62
2022/04/13 06:50:36;;;;;;;10.02;4.05;;;21.20;92.00;;;;;;5105135;28;20399;-62
2022/04/13 06:53:40;;;;;;;13.15;6.18;;;22.00;91.10;;;;;;5106411;28;20386;-64
2022/04/13 06:56:44;;;;;;;20.90;10.23;;;22.10;90.20;;;;;;5105015;28;20051;-62
2022/04/13 06:59:48;;;;;;;18.25;8.77;;;20.70;91.00;;;;;;5107169;28;20039;-61
2022/04/13 07:02:57;;;;;;;14.85;7.40;;;22.20;90.10;;;;;;5108446;28;20054;-65
2022/04/13 07:06:01;;;;;;;23.77;11.18;;;23.00;89.30;;;;;;5106389;28;20039;-62
2022/04/13 07:09:05;;;;;;;20.25;10.65;;;23.00;87.10;;;;;;5109874;28;20498;-62
2022/04/13 07:12:09;;;;;;;18.75;9.88;;;22.60;87.70;;;;;;5106809;28;20042;-63
2022/04/13 07:15:17;;;;;;;24.02;13.50;;;22.80;88.10;;;;;;5104367;28;20051;-63
2022/04/13 07:18:21;;;;;;;22.60;13.55;;;21.20;89.00;;;;;;5106101;28;20042;-62
2022/04/13 07:21:25;;;;;;;24.83;14.02;;;22.10;88.60;;;;;;5101653;28;20043;-63
2022/04/13 07:24:30;;;;;;;26.55;14.18;;;22.70;87.20;;;;;;5104572;28;20042;-63
2022/04/13 07:27:34;;;;;;;22.75;12.70;;;23.90;86.60;;;;;;5112319;28;20043;-63
2022/04/13 07:30:38;;;;;;;21.77;11.85;;;25.00;83.90;;;;;;5112120;28;20058;-62
2022/04/13 07:33:42;;;;;;;12.98;7.68;;;25.10;81.50;;;;;;5104705;28;20399;-62
2022/04/13 07:36:47;;;;;;;15.98;9.85;;;25.30;79.50;;;;;;5107891;28;20043;-62
2022/04/13 07:39:54;;;;;;;12.95;7.88;;;26.40;80.00;;;;;;5105694;28;20054;-62
2022/04/13 07:42:58;;;;;;;14.25;7.20;;;26.70;76.50;;;;;;5104846;28;20031;-62
2022/04/13 07:46:02;;;;;;;13.45;6.20;;;25.70;75.60;;;;;;5100968;28;20035;-63
2022/04/13 07:49:08;;;;;;;14.85;7.07;;;25.90;76.60;;;;;;5097117;28;20059;-62
2022/04/13 07:52:14;;;;;;;20.13;8.00;;;24.90;77.80;;;;;;5103918;28;20039;-63
2022/04/13 07:55:19;;;;;;;13.05;5.97;;;24.50;76.10;;;;;;5103261;28;20046;-63
2022/04/13 07:58:23;;;;;;;10.77;5.10;;;24.40;75.40;;;;;;5100257;28;20173;-63
2022/04/13 08:01:27;;;;;;;9.13;4.38;;;26.20;75.00;;;;;;5101217;28;20042;-64
2022/04/13 08:04:33;;;;;;;10.07;4.20;;;24.30;76.60;;;;;;5105947;28;20038;-63
2022/04/13 08:07:38;;;;;;;8.05;3.60;;;26.40;75.80;;;;;;5104960;28;20500;-63
2022/04/13 08:10:43;;;;;;;8.52;3.47;;;27.20;74.60;;;;;;5104849;28;20050;-63
2022/04/13 08:13:48;;;;;;;6.82;3.67;;;26.40;72.60;;;;;;5104879;28;20061;-63
2022/04/13 08:16:52;;;;;;;7.60;4.30;;;27.60;73.20;;;;;;5107342;28;20039;-63
2022/04/13 08:19:56;;;;;;;8.15;3.83;;;26.90;72.70;;;;;;5102937;28;20042;-64
2022/04/13 08:23:00;;;;;;;9.18;3.83;;;28.80;70.30;;;;;;5102548;28;20039;-62
2022/04/13 08:26:04;;;;;;;5.90;3.22;;;30.10;69.40;;;;;;5100951;28;20054;-64
2022/04/13 08:29:08;;;;;;;10.18;3.58;;;30.70;64.60;;;;;;5107553;28;20039;-63
2022/04/13 08:32:15;;;;;;;9.15;3.00;;;28.20;63.70;;;;;;5105170;28;20047;-63
2022/04/13 08:35:20;;;;;;;6.90;2.80;;;28.50;65.70;;;;;;5106318;28;20039;-63
2022/04/13 08:38:24;;;;;;;7.30;3.35;;;28.40;64.40;;;;;;5104694;28;20046;-64
2022/04/13 08:41:57;;;;;;;5.93;2.75;;;25.70;66.50;;;;;;5107409;28;20047;-63
2022/04/13 08:45:08;;;;;;;4.68;2.72;;;29.20;67.20;;;;;;5110050;28;20035;-64
2022/04/13 08:48:12;;;;;;;;;;;31.20;62.50;;;;;;5101149;28;20043;-63
2022/04/13 08:51:21;;;;;;;8.98;2.70;;;27.30;63.50;;;;;;5102505;28;19912;-64
2022/04/13 08:54:31;;;;;;;6.00;2.35;;;28.30;65.50;;;;;;5105533;28;20038;-64
2022/04/13 08:57:41;;;;;;;;;;;30.70;64.50;;;;;;5102403;28;20039;-64
2022/04/13 09:00:55;;;;;;;4.72;2.50;;;33.80;61.70;;;;;;5105981;28;20475;-63
2022/04/13 09:04:07;;;;;;;9.23;2.50;;;29.90;59.40;;;;;;5098471;28;20677;-63
2022/04/13 09:07:16;;;;;;;9.45;3.13;;;29.40;62.80;;;;;;5105892;28;20046;-65
2022/04/13 09:10:21;;;;;;;4.78;2.42;;;32.30;61.50;;;;;;5104505;28;20058;-64
2022/04/13 09:13:26;;;;;;;5.00;2.42;;;35.20;59.50;;;;;;5107196;28;20667;-64
2022/04/13 09:16:32;;;;;;;5.28;2.33;;;35.90;56.60;;;;;;5103927;28;20050;-63
2022/04/13 09:19:37;;;;;;;5.28;2.20;;;37.00;55.20;;;;;;5107997;28;20051;-63
2022/04/13 09:22:42;;;;;;;5.05;2.50;;;36.20;53.80;;;;;;5107790;28;20047;-71
2022/04/13 09:25:51;;;;;;;4.90;2.80;;;36.00;53.60;;;;;;5105586;28;20529;-71
2022/04/13 09:28:55;;;;;;;5.55;2.58;;;34.60;56.00;;;;;;5105425;28;20042;-72
2022/04/13 09:31:59;;;;;;;4.05;2.20;;;35.60;54.30;;;;;;5105926;28;20050;-72
2022/04/13 09:35:04;;;;;;;4.80;2.10;;;35.00;56.20;;;;;;5106102;28;20043;-72
2022/04/13 09:38:09;;;;;;;5.25;2.35;;;33.50;52.60;;;;;;5099558;28;20042;-73
2022/04/13 09:41:13;;;;;;;4.35;2.40;;;31.40;57.50;;;;;;5109046;28;20051;-72
2022/04/13 09:44:18;;;;;;;6.00;2.53;;;31.80;55.80;;;;;;5105709;28;20038;-72
2022/04/13 09:47:28;;;;;;;5.78;2.10;;;34.90;55.20;;;;;;5099416;28;20038;-72
2022/04/13 09:50:33;;;;;;;7.07;2.55;;;37.50;53.90;;;;;;5101155;28;20031;-72
2022/04/13 09:53:42;;;;;;;4.03;2.28;;;37.70;51.30;;;;;;5107348;28;20394;-72
2022/04/13 09:56:47;;;;;;;8.20;2.50;;;33.70;53.40;;;;;;5103303;28;20480;-72
2022/04/13 09:59:59;;;;;;;4.40;1.88;;;31.50;53.90;;;;;;5107529;28;20500;-65
2022/04/13 10:03:15;;;;;;;2.85;1.92;;;36.10;53.40;;;;;;5097926;28;20046;-66
2022/04/13 10:06:26;;;;;;;4.15;1.77;;;38.90;50.40;;;;;;5103296;28;20391;-65
2022/04/13 10:09:31;;;;;;;2.67;1.75;;;39.60;49.50;;;;;;5108212;28;20043;-65
2022/04/13 10:12:47;;;;;;;4.50;1.60;;;40.10;46.90;;;;;;5106575;28;20054;-65
2022/04/13 10:15:57;;;;;;;4.50;1.98;;;40.80;44.40;;;;;;5107638;28;20035;-74
2022/04/13 10:19:04;;;;;;;4.97;1.80;;;41.70;45.40;;;;;;5105448;28;20035;-74
2022/04/13 10:22:09;;;;;;;2.85;1.80;;;43.20;46.00;;;;;;5103573;28;20045;-66
2022/04/13 10:25:17;;;;;;;4.28;2.22;;;44.00;44.40;;;;;;5109908;28;20035;-73
2022/04/13 10:28:22;;;;;;;4.78;2.10;;;38.20;45.40;;;;;;5097869;28;20517;-73
2022/04/13 10:31:26;;;;;;;5.18;2.00;;;34.80;47.50;;;;;;5109933;28;20046;-65
2022/04/13 10:34:32;;;;;;;7.80;1.90;;;37.00;46.30;;;;;;5107929;28;20043;-65
2022/04/13 10:37:36;;;;;;;4.70;2.10;;;38.90;46.70;;;;;;5105316;28;20047;-65
2022/04/13 10:40:42;;;;;;;7.05;1.95;;;40.70;45.30;;;;;;5109010;28;20121;-73
2022/04/13 10:43:50;;;;;;;5.40;2.42;;;36.70;45.80;;;;;;5103651;28;20042;-65
2022/04/13 10:47:00;;;;;;;5.38;2.00;;;35.00;47.80;;;;;;5113081;28;20047;-72
2022/04/13 10:50:07;;;;;;;2.45;1.50;;;37.50;46.00;;;;;;5109217;28;20050;-66
2022/04/13 10:53:25;;;;;;;3.60;2.00;;;39.70;44.60;;;;;;5108482;28;20054;-72
2022/04/13 10:56:32;;;;;;;5.30;1.92;;;40.50;43.70;;;;;;5109024;28;20038;-72
2022/04/13 10:59:51;;;;;;;2.30;1.70;;;40.90;43.00;;;;;;5104268;28;20043;-65
2022/04/13 11:03:03;;;;;;;4.68;2.08;;;40.80;43.00;;;;;;5108487;28;20470;-65
2022/04/13 11:06:11;;;;;;;3.70;1.70;;;39.90;44.40;;;;;;5112077;28;20034;-65
2022/04/13 11:09:25;;;;;;;5.70;1.92;;;40.00;44.50;;;;;;5108157;28;20047;-66
2022/04/13 11:12:32;;;;;;;3.72;2.00;;;39.90;43.30;;;;;;5090122;28;20043;-66
2022/04/13 11:15:50;;;;;;;3.33;1.80;;;40.20;43.00;;;;;;5106381;28;20418;-67
2022/04/13 11:19:18;;;;;;;6.70;1.70;;;41.00;42.70;;;;;;5110757;28;20035;-66
2022/04/13 11:22:23;;;;;;;5.90;1.83;;;41.50;42.70;;;;;;5110325;28;20212;-72
2022/04/13 11:25:45;;;;;;;2.90;1.77;;;40.60;42.60;;;;;;5101718;28;20052;-73
2022/04/13 11:29:09;;;;;;;5.15;2.10;;;37.20;44.20;;;;;;5105630;28;20063;-73
2022/04/13 11:32:16;;;;;;;3.95;2.28;;;34.40;45.60;;;;;;5103814;28;20130;-74
2022/04/13 11:35:25;;;;;;;9.77;1.90;;;34.00;45.30;;;;;;5103550;28;20387;-73
2022/04/13 11:38:36;;;;;;;3.72;2.10;;;36.90;45.70;;;;;;5102644;28;20042;-72
2022/04/13 11:41:51;;;;;;;4.75;2.33;;;38.90;44.90;;;;;;5099523;28;20047;-72
2022/04/13 11:45:09;;;;;;;7.43;2.15;;;39.40;44.20;;;;;;5105945;28;20374;-72
2022/04/13 11:48:34;;;;;;;3.80;1.80;;;40.50;44.10;;;;;;5111979;28;20046;-65
2022/04/13 11:51:39;;;;;;;6.80;2.65;;;38.70;42.70;;;;;;5108855;28;20038;-65
2022/04/13 11:54:46;;;;;;;5.85;2.17;;;38.40;43.60;;;;;;5106146;28;20536;-64
2022/04/13 11:58:09;;;;;;;4.30;1.90;;;31.30;46.40;;;;;;5107684;28;20043;-66
2022/04/13 12:01:13;;;;;;;3.05;2.22;;;31.90;47.70;;;;;;5104000;28;20042;-67
2022/04/13 12:04:21;;;;;;;4.10;1.90;;;34.80;46.40;;;;;;5109522;28;20042;-66
2022/04/13 12:07:28;;;;;;;4.57;1.88;;;36.20;45.60;;;;;;5105011;28;20051;-64
2022/04/13 12:10:37;;;;;;;3.20;1.75;;;37.80;46.20;;;;;;5105114;28;20043;-64
2022/04/13 12:14:00;;;;;;;7.78;2.08;;;38.90;44.50;;;;;;5101053;28;20042;-65
2022/04/13 12:17:05;;;;;;;3.25;1.65;;;40.60;44.10;;;;;;5108222;28;20466;-65
2022/04/13 12:20:25;;;;;;;4.50;1.88;;;40.90;44.10;;;;;;5101935;28;20043;-65
2022/04/13 12:23:29;;;;;;;3.00;1.58;;;41.10;44.20;;;;;;5111581;28;20043;-66
2022/04/13 12:26:36;;;;;;;3.60;1.65;;;36.90;45.40;;;;;;5112940;28;20042;-65
2022/04/13 12:29:40;;;;;;;4.55;1.95;;;38.70;45.60;;;;;;5108866;28;20066;-67
2022/04/13 12:32:45;;;;;;;3.13;1.58;;;39.60;44.70;;;;;;5101903;28;20042;-67
2022/04/13 12:35:51;;;;;;;3.63;1.65;;;38.80;43.10;;;;;;5110000;28;20367;-66
2022/04/13 12:38:57;;;;;;;5.10;1.90;;;37.40;43.40;;;;;;5109358;28;20030;-66
2022/04/13 12:42:03;;;;;;;6.50;1.75;;;36.30;45.50;;;;;;5103926;28;20039;-66
2022/04/13 12:45:11;;;;;;;4.10;1.63;;;33.80;44.80;;;;;;5107009;28;20042;-65
2022/04/13 12:48:15;;;;;;;4.22;1.55;;;31.30;48.80;;;;;;5106282;28;20035;-65
2022/04/13 12:51:20;;;;;;;3.00;1.80;;;33.70;48.80;;;;;;5095636;28;20039;-65
2022/04/13 12:54:24;;;;;;;6.07;2.05;;;36.30;45.90;;;;;;5102539;28;20038;-66
2022/04/13 12:57:28;;;;;;;4.40;1.90;;;36.70;43.90;;;;;;5100302;28;20071;-65
2022/04/13 13:00:49;;;;;;;5.35;2.30;;;36.50;43.80;;;;;;5098421;28;20054;-66
2022/04/13 13:03:53;;;;;;;3.60;2.03;;;34.60;45.60;;;;;;5110981;28;20042;-65
2022/04/13 13:07:04;;;;;;;3.25;1.85;;;35.30;44.60;;;;;;5103203;28;20122;-65
2022/04/13 13:10:09;;;;;;;3.90;1.70;;;35.70;44.60;;;;;;5103772;28;20053;-66
2022/04/13 13:13:18;;;;;;;3.25;1.88;;;36.10;45.50;;;;;;5102944;28;20132;-66
2022/04/13 13:16:34;;;;;;;2.92;1.60;;;36.80;44.70;;;;;;5104305;28;20051;-66
2022/04/13 13:19:38;;;;;;;3.78;1.45;;;38.30;44.70;;;;;;5104847;28;20386;-66
2022/04/13 13:22:50;;;;;;;10.02;2.15;;;38.70;44.40;;;;;;5109230;28;20046;-66
2022/04/13 13:25:54;;;;;;;4.65;1.90;;;38.40;46.10;;;;;;5101212;28;20027;-66
2022/04/13 13:29:00;;;;;;;5.18;1.80;;;38.30;45.30;;;;;;5111304;28;20419;-66
2022/04/13 13:32:16;;;;;;;3.85;1.80;;;38.70;44.90;;;;;;5111020;28;20046;-66
2022/04/13 13:35:29;;;;;;;4.18;1.90;;;38.60;45.50;;;;;;5110911;28;20047;-66
2022/04/13 13:38:33;;;;;;;2.90;1.60;;;37.70;45.00;;;;;;5106579;28;20043;-66
2022/04/13 13:41:37;;;;;;;2.90;1.75;;;37.00;45.50;;;;;;5110545;28;20046;-66
2022/04/13 13:44:41;;;;;;;3.97;1.60;;;34.30;44.80;;;;;;5110735;28;20050;-66
2022/04/13 13:47:46;;;;;;;5.60;2.00;;;33.70;47.80;;;;;;5094990;28;20051;-65
2022/04/13 13:50:55;;;;;;;6.07;2.00;;;34.10;47.70;;;;;;5093954;28;20043;-66
2022/04/13 13:53:59;;;;;;;5.25;1.90;;;34.10;47.40;;;;;;5107568;28;20047;-66
2022/04/13 13:57:03;;;;;;;3.58;1.80;;;34.00;47.30;;;;;;5110627;28;20120;-66
2022/04/13 14:00:08;;;;;;;3.90;2.20;;;34.00;46.40;;;;;;5110429;28;20497;-66
2022/04/13 14:03:13;;;;;;;6.32;1.85;;;34.10;47.00;;;;;;5109689;28;20168;-67
2022/04/13 14:06:17;;;;;;;5.28;1.83;;;34.30;47.50;;;;;;5102795;28;20042;-66
2022/04/13 14:09:22;;;;;;;7.03;1.85;;;34.20;47.60;;;;;;5107753;28;20050;-65
2022/04/13 14:12:27;;;;;;;5.10;2.08;;;33.40;47.10;;;;;;5102027;28;20501;-66
2022/04/13 14:15:31;;;;;;;3.47;1.92;;;32.80;48.40;;;;;;5109981;28;20055;-65
2022/04/13 14:18:35;;;;;;;6.00;2.25;;;32.80;47.10;;;;;;5110706;28;20043;-66
2022/04/13 14:21:39;;;;;;;6.30;2.00;;;32.80;47.80;;;;;;5104251;28;20497;-65
2022/04/13 14:24:43;;;;;;;3.55;1.70;;;32.60;48.30;;;;;;5111961;28;20038;-65
2022/04/13 14:27:52;;;;;;;5.55;1.90;;;32.30;47.80;;;;;;5103599;28;20051;-65
2022/04/13 14:30:56;;;;;;;4.18;1.92;;;32.10;48.40;;;;;;5115353;28;20047;-65
2022/04/13 14:34:02;;;;;;;6.97;1.90;;;31.90;49.20;;;;;;5114749;28;20046;-66
2022/04/13 14:37:06;;;;;;;6.80;1.88;;;31.40;49.10;;;;;;5107553;28;20038;-65
2022/04/13 14:40:10;;;;;;;12.07;2.15;;;31.20;48.40;;;;;;5114286;28;20038;-64
2022/04/13 14:43:14;;;;;;;3.50;2.13;;;30.10;48.40;;;;;;5115653;28;20050;-64
2022/04/13 14:46:18;;;;;;;5.90;2.65;;;27.50;48.80;;;;;;5113854;28;20039;-64
2022/04/13 14:49:22;;;;;;;3.97;1.85;;;27.10;49.00;;;;;;5111912;28;20042;-64
2022/04/13 14:52:26;;;;;;;5.47;2.05;;;27.60;51.30;;;;;;5114446;28;20054;-65
2022/04/13 14:55:30;;;;;;;5.07;2.13;;;28.30;52.00;;;;;;5101898;28;20046;-65
2022/04/13 14:58:35;;;;;;;7.15;2.20;;;28.80;50.90;;;;;;5097089;28;20039;-65
2022/04/13 15:01:39;;;;;;;4.20;2.00;;;29.10;51.40;;;;;;5094125;28;20047;-65
2022/04/13 15:04:44;;;;;;;10.05;1.83;;;29.40;49.70;;;;;;5100140;28;20141;-66
2022/04/13 15:07:48;;;;;;;4.93;1.92;;;29.50;50.50;;;;;;5113197;28;20047;-66
2022/04/13 15:10:51;;;;;;;4.07;2.40;;;29.40;49.00;;;;;;5113852;28;20043;-66
2022/04/13 15:13:57;;;;;;;5.07;2.63;;;29.20;51.80;;;;;;5112669;28;20059;-66
2022/04/13 15:17:03;;;;;;;6.40;2.70;;;29.00;54.40;;;;;;5092972;28;20043;-65
2022/04/13 15:20:07;;;;;;;6.13;2.75;;;29.10;53.90;;;;;;5109350;28;20042;-66
2022/04/13 15:23:12;;;;;;;4.63;2.30;;;29.00;54.00;;;;;;5114066;28;20039;-65
2022/04/13 15:26:19;;;;;;;5.45;2.00;;;28.80;54.40;;;;;;5112666;28;20034;-65
2022/04/13 15:29:22;;;;;;;9.38;2.92;;;28.70;56.20;;;;;;5113327;28;20500;-65
2022/04/13 15:32:28;;;;;;;6.60;2.58;;;28.70;56.80;;;;;;5113545;28;20050;-65
2022/04/13 15:35:32;;;;;;;3.50;2.30;;;28.40;56.40;;;;;;5113381;28;20047;-65
2022/04/13 15:38:36;;;;;;;7.70;2.70;;;28.10;57.50;;;;;;5113969;28;20374;-65
2022/04/13 15:41:42;;;;;;;5.18;2.58;;;27.90;57.30;;;;;;5113674;28;20046;-65
2022/04/13 15:44:46;;;;;;;5.75;2.90;;;27.70;57.30;;;;;;5113423;28;20398;-65
2022/04/13 15:47:50;;;;;;;5.72;2.80;;;27.50;58.90;;;;;;5113000;28;20039;-65
2022/04/13 15:50:54;;;;;;;5.10;3.08;;;27.30;59.20;;;;;;5113599;28;20051;-65
2022/04/13 15:53:59;;;;;;;6.30;3.22;;;27.00;59.40;;;;;;5112927;28;20402;-65
2022/04/13 15:57:04;;;;;;;4.78;3.25;;;26.90;58.90;;;;;;5112857;28;20050;-65
2022/04/13 16:00:08;;;;;;;6.40;3.05;;;26.70;60.20;;;;;;5112954;28;20042;-66
2022/04/13 16:03:16;;;;;;;6.03;3.47;;;26.40;61.70;;;;;;5112911;28;20043;-65
2022/04/13 16:06:20;;;;;;;7.30;3.60;;;26.30;63.10;;;;;;5112723;28;20478;-65
2022/04/13 16:09:24;;;;;;;7.15;4.07;;;25.70;64.00;;;;;;5113110;28;20042;-65